Time;durP1;ratioP1;P1;durP2;ratioP2;P2;SDS_P1;SDS_P2;PMS_P1;PMS_P2;Temp;Humidity;BMP_temperature;BMP_pressure;BME280_temperature;BME280_humidity;BME280_pressure;Samples;Min_cycle;Max_cycle;Signal;HPM_P1;HPM_P2
2022/10/17 06:23:19;;;;;;;4.67;2.33;;;9.70;99.90;;;;;;5131064;27;20864;-83
2022/10/17 06:25:45;;;;;;;2.50;2.30;;;9.70;99.90;;;;;;5097336;28;20221;-83
2022/10/17 06:28:11;;;;;;;6.03;2.77;;;;;;;;;;5095555;28;20214;-83
2022/10/17 06:30:39;;;;;;;8.80;2.53;;;9.70;99.90;;;;;;5094554;28;20186;-83
2022/10/17 06:33:05;;;;;;;2.50;2.30;;;;;;;;;;5095792;28;20198;-83
2022/10/17 06:35:31;;;;;;;4.47;2.10;;;;;;;;;;5095454;28;20223;-83
2022/10/17 07:08:49;;;;;;;2.47;2.03;;;10.90;99.90;;;;;;5122918;27;20494;-85
2022/10/17 07:11:17;;;;;;;3.47;2.10;;;10.90;99.90;;;;;;5094825;28;20238;-84
2022/10/17 07:13:43;;;;;;;2.97;2.30;;;11.00;99.90;;;;;;5078065;28;20168;-83
2022/10/17 07:16:10;;;;;;;4.43;2.37;;;11.00;99.90;;;;;;5078187;28;20530;-84
2022/10/17 07:18:35;;;;;;;2.53;1.90;;;11.20;99.90;;;;;;5077492;28;20205;-83
2022/10/17 07:21:02;;;;;;;3.87;2.13;;;11.30;99.90;;;;;;5078195;28;20184;-83
2022/10/17 07:23:28;;;;;;;2.93;1.93;;;11.50;99.90;;;;;;5078263;28;20176;-82
2022/10/17 07:25:59;;;;;;;2.87;2.03;;;11.70;99.90;;;;;;5078175;28;20188;-84
2022/10/17 07:28:25;;;;;;;5.77;1.90;;;11.90;99.90;;;;;;5079101;28;20213;-84
2022/10/17 07:30:50;;;;;;;3.77;2.10;;;12.20;99.90;;;;;;5077803;28;20658;-82
2022/10/17 07:33:16;;;;;;;3.10;1.80;;;12.40;99.90;;;;;;5077572;28;20231;-84
2022/10/17 07:35:42;;;;;;;6.30;2.20;;;12.60;99.90;;;;;;5077706;28;20214;-86
2022/10/17 07:38:07;;;;;;;3.77;2.30;;;12.80;99.90;;;;;;5076260;28;20252;-85
2022/10/17 07:40:33;;;;;;;2.57;2.03;;;12.90;99.90;;;;;;5077498;28;20176;-84
2022/10/17 07:42:59;;;;;;;2.70;1.80;;;13.00;99.90;;;;;;5076821;28;20174;-83
2022/10/17 07:45:26;;;;;;;2.10;1.73;;;13.00;99.90;;;;;;5078343;28;20169;-84
2022/10/17 07:47:58;;;;;;;3.10;1.90;;;13.10;99.90;;;;;;5076584;28;20208;-83
2022/10/17 07:50:24;;;;;;;3.47;1.93;;;13.20;99.90;;;;;;5077062;28;20228;-84
2022/10/17 07:52:49;;;;;;;2.63;1.57;;;13.40;99.90;;;;;;5075907;28;20173;-86
2022/10/17 07:55:15;;;;;;;2.60;2.10;;;13.70;99.90;;;;;;5075316;28;20169;-84
2022/10/17 07:57:41;;;;;;;2.73;1.83;;;14.10;99.90;;;;;;5076125;28;20184;-85
2022/10/17 08:00:08;;;;;;;2.43;1.70;;;14.50;99.90;;;;;;5076560;28;20268;-84
2022/10/17 08:02:33;;;;;;;2.80;1.50;;;14.70;99.90;;;;;;5077245;28;20181;-86
2022/10/17 08:04:59;;;;;;;3.13;1.70;;;15.10;99.90;;;;;;5077001;28;20296;-83
2022/10/17 08:07:25;;;;;;;3.20;1.70;;;15.60;99.90;;;;;;5076311;28;20277;-85
2022/10/17 08:09:50;;;;;;;3.40;1.97;;;15.90;99.90;;;;;;5076845;28;20189;-83
2022/10/17 08:12:16;;;;;;;3.00;1.60;;;16.00;99.90;;;;;;5078229;28;20167;-85
2022/10/17 08:14:42;;;;;;;2.47;1.70;;;16.10;99.90;;;;;;5076329;28;20185;-84
2022/10/17 08:17:09;;;;;;;1.87;1.70;;;16.40;99.90;;;;;;5078408;28;20519;-85
2022/10/17 08:19:39;;;;;;;2.37;2.00;;;16.60;99.90;;;;;;5065969;28;20202;-85
2022/10/17 08:22:04;;;;;;;1.87;1.67;;;16.80;99.90;;;;;;5065604;28;20207;-86
2022/10/17 08:24:30;;;;;;;4.57;2.20;;;17.00;99.90;;;;;;5063704;28;20190;-84
2022/10/17 08:26:57;;;;;;;2.10;1.90;;;17.40;99.90;;;;;;5063303;28;20214;-84
2022/10/17 08:29:23;;;;;;;3.87;1.70;;;17.80;99.90;;;;;;5077998;28;20183;-79
2022/10/17 08:31:49;;;;;;;4.17;1.70;;;18.00;99.90;;;;;;5079709;28;20212;-81
2022/10/17 08:34:15;;;;;;;4.40;1.63;;;18.50;99.90;;;;;;5071976;28;20192;-86
2022/10/17 08:36:41;;;;;;;1.93;1.73;;;18.80;99.90;;;;;;5060211;28;20188;-85
2022/10/17 08:39:06;;;;;;;2.53;1.60;;;19.30;99.90;;;;;;5060140;28;20205;-86
2022/10/17 08:41:35;;;;;;;2.60;1.73;;;19.40;99.90;;;;;;5062240;28;20180;-85
2022/10/17 08:44:22;;;;;;;4.63;1.90;;;19.50;99.90;;;;;;5061229;28;20177;-85
2022/10/17 08:46:52;;;;;;;3.23;1.80;;;19.70;99.90;;;;;;5062440;28;20525;-85
2022/10/17 08:49:45;;;;;;;4.33;1.90;;;20.10;99.90;;;;;;5059761;28;20672;-84
2022/10/17 08:52:20;;;;;;;2.30;1.50;;;20.60;99.90;;;;;;5061598;28;20177;-86
2022/10/17 08:54:47;;;;;;;3.23;1.63;;;20.60;99.90;;;;;;5060742;28;20260;-85
2022/10/17 08:57:15;;;;;;;1.57;1.47;;;20.80;99.90;;;;;;5061758;28;20169;-86
2022/10/17 08:59:49;;;;;;;2.00;1.70;;;21.40;99.90;;;;;;5061382;28;20204;-84
2022/10/17 09:02:33;;;;;;;2.70;1.60;;;22.00;99.90;;;;;;5062491;28;20161;-85
2022/10/17 09:05:14;;;;;;;6.93;1.90;;;22.10;99.90;;;;;;5061144;28;20205;-85
2022/10/17 09:08:03;;;;;;;2.90;1.60;;;22.70;99.90;;;;;;5059712;28;20267;-86
2022/10/17 09:10:55;;;;;;;4.43;1.60;;;22.70;99.90;;;;;;5023875;28;20216;-85
2022/10/17 09:13:43;;;;;;;6.87;2.07;;;22.90;99.90;;;;;;5061254;28;20162;-86
2022/10/17 09:17:06;;;;;;;6.60;1.90;;;22.90;99.90;;;;;;5061650;28;20157;-85
2022/10/17 09:19:36;;;;;;;8.37;2.17;;;23.20;99.90;;;;;;4999022;28;20207;-86
2022/10/17 09:22:20;;;;;;;2.77;1.60;;;23.60;99.90;;;;;;4999417;28;20166;-85
2022/10/17 09:24:58;;;;;;;5.53;1.63;;;24.00;99.90;;;;;;5045761;28;20700;-84
2022/10/17 09:27:32;;;;;;;1.93;1.30;;;24.40;99.90;;;;;;5060753;28;20204;-86
2022/10/17 09:30:21;;;;;;;1.90;1.40;;;24.70;99.30;;;;;;5060020;28;20242;-85
2022/10/17 09:32:47;;;;;;;2.10;1.40;;;24.40;96.80;;;;;;5064642;28;20518;-84
2022/10/17 09:35:14;;;;;;;1.77;1.60;;;24.60;99.00;;;;;;5061538;28;20583;-85
2022/10/17 09:37:40;;;;;;;3.63;1.80;;;24.90;99.40;;;;;;5058990;28;20214;-85
2022/10/17 09:40:12;;;;;;;10.03;2.33;;;25.40;99.90;;;;;;5058584;28;20205;-84
2022/10/17 09:42:39;;;;;;;3.30;1.70;;;25.80;99.90;;;;;;5058968;28;20198;-85
2022/10/17 09:45:15;;;;;;;5.40;1.80;;;25.90;96.30;;;;;;5060484;28;20172;-85
2022/10/17 09:47:46;;;;;;;5.03;1.90;;;26.30;98.40;;;;;;5059125;28;20199;-85
2022/10/17 09:50:25;;;;;;;2.93;2.10;;;26.60;97.60;;;;;;5060935;28;20166;-86
2022/10/17 09:52:52;;;;;;;7.07;2.00;;;26.90;96.00;;;;;;5062006;28;20193;-83
2022/10/17 09:55:30;;;;;;;3.03;1.70;;;27.00;97.30;;;;;;5060371;28;20188;-86
2022/10/17 09:58:07;;;;;;;2.73;2.10;;;27.20;94.50;;;;;;5058608;28;20193;-86
2022/10/17 10:00:36;;;;;;;3.57;1.90;;;27.00;97.00;;;;;;5059391;28;20208;-86
2022/10/17 10:03:22;;;;;;;2.77;1.93;;;27.10;94.10;;;;;;5060241;28;20166;-86
2022/10/17 10:06:16;;;;;;;3.77;2.00;;;27.10;94.10;;;;;;5057752;28;20705;-86
2022/10/17 10:08:54;;;;;;;4.83;2.00;;;26.80;93.20;;;;;;5058234;28;20579;-84
2022/10/17 10:11:24;;;;;;;2.30;2.10;;;26.70;95.40;;;;;;5060528;28;20232;-85
2022/10/17 10:13:51;;;;;;;2.70;1.80;;;26.80;93.10;;;;;;5059958;28;20184;-84
2022/10/17 10:16:32;;;;;;;2.33;1.80;;;26.90;94.20;;;;;;5058346;28;20178;-87
2022/10/17 10:18:58;;;;;;;2.47;1.70;;;27.30;93.00;;;;;;5059665;28;20699;-84
2022/10/17 10:21:26;;;;;;;2.77;1.67;;;27.60;94.50;;;;;;5060081;28;20166;-86
2022/10/17 10:24:05;;;;;;;3.77;1.93;;;27.80;91.80;;;;;;5059961;28;20201;-83
2022/10/17 10:26:42;;;;;;;2.33;1.80;;;27.80;92.40;;;;;;5058726;28;20579;-84
2022/10/17 10:29:29;;;;;;;1.97;1.57;;;27.80;93.50;;;;;;5060635;28;20193;-86
2022/10/17 10:32:07;;;;;;;2.00;1.70;;;28.10;89.50;;;;;;5059401;28;20215;-85
2022/10/17 10:34:34;;;;;;;2.63;1.77;;;28.30;87.00;;;;;;5060196;28;20158;-85
2022/10/17 10:37:28;;;;;;;1.63;1.53;;;28.10;85.20;;;;;;5060040;28;20231;-84
2022/10/17 10:40:17;;;;;;;2.03;1.43;;;28.40;88.40;;;;;;5061677;28;20202;-86
2022/10/17 10:42:50;;;;;;;1.67;1.57;;;28.40;82.60;;;;;;5050327;28;20222;-86
2022/10/17 10:45:20;;;;;;;3.80;1.70;;;28.40;83.10;;;;;;5061202;28;20250;-84
2022/10/17 10:48:11;;;;;;;2.23;1.60;;;28.50;84.10;;;;;;5062652;28;20164;-84
2022/10/17 10:50:48;;;;;;;3.10;1.57;;;28.80;86.40;;;;;;5052927;28;20190;-86
2022/10/17 10:53:24;;;;;;;1.70;1.60;;;29.00;86.50;;;;;;5063279;28;20163;-86
2022/10/17 10:56:00;;;;;;;1.80;1.50;;;29.40;84.40;;;;;;5061624;28;20233;-86
2022/10/17 10:58:40;;;;;;;2.17;1.30;;;29.60;79.90;;;;;;5060189;28;20198;-87
2022/10/17 11:01:18;;;;;;;1.80;1.70;;;29.60;77.60;;;;;;5057808;28;20179;-83
2022/10/17 11:03:57;;;;;;;1.80;1.57;;;29.70;79.20;;;;;;5059388;28;20158;-86
2022/10/17 11:06:27;;;;;;;2.10;1.70;;;30.00;78.10;;;;;;5058785;28;20256;-84
2022/10/17 11:09:23;;;;;;;1.53;1.37;;;30.10;81.20;;;;;;5061420;28;20198;-85
2022/10/17 11:11:57;;;;;;;3.97;1.70;;;30.40;77.40;;;;;;5062900;28;20523;-85
2022/10/17 11:15:02;;;;;;;2.43;1.40;;;30.80;74.80;;;;;;5064200;28;20165;-84
2022/10/17 11:17:49;;;;;;;1.87;1.60;;;30.90;75.50;;;;;;5066043;28;20201;-79
2022/10/17 11:20:41;;;;;;;1.73;1.63;;;30.40;69.60;;;;;;5071744;28;20178;-83
2022/10/17 11:23:20;;;;;;;4.00;1.63;;;30.10;72.40;;;;;;5064365;28;20169;-85
2022/10/17 11:25:49;;;;;;;2.30;1.60;;;30.10;74.70;;;;;;5058726;28;20162;-84
2022/10/17 11:28:21;;;;;;;4.23;1.30;;;30.40;71.20;;;;;;5057628;28;20210;-85
2022/10/17 11:31:11;;;;;;;3.30;1.60;;;30.40;75.70;;;;;;5059713;28;20210;-85
2022/10/17 11:33:48;;;;;;;2.07;1.50;;;30.60;74.70;;;;;;5057585;28;20191;-83
2022/10/17 11:36:18;;;;;;;3.37;1.60;;;31.00;73.30;;;;;;5059482;28;20180;-85
2022/10/17 11:38:55;;;;;;;1.53;1.43;;;31.20;67.70;;;;;;5060115;28;20203;-85
2022/10/17 11:41:44;;;;;;;3.67;2.13;;;31.40;75.90;;;;;;5060954;28;20260;-84
2022/10/17 11:44:31;;;;;;;5.67;1.60;;;31.60;77.40;;;;;;5056079;28;20185;-89
2022/10/17 11:47:03;;;;;;;3.67;1.70;;;31.60;72.20;;;;;;5057432;28;20180;-84
2022/10/17 11:49:39;;;;;;;4.43;1.60;;;31.10;67.60;;;;;;5058528;28;20790;-87
2022/10/17 11:52:05;;;;;;;2.43;1.50;;;31.40;78.50;;;;;;5059477;28;20261;-87
2022/10/17 11:54:38;;;;;;;1.60;1.50;;;31.80;70.50;;;;;;5061210;28;20255;-85
2022/10/17 11:57:17;;;;;;;2.43;1.70;;;31.80;68.10;;;;;;5063006;28;20664;-86
2022/10/17 11:59:55;;;;;;;3.27;1.80;;;31.60;73.30;;;;;;5063641;28;20220;-86
2022/10/17 12:02:27;;;;;;;2.57;1.50;;;31.00;66.80;;;;;;5063045;28;20235;-89
2022/10/17 12:05:30;;;;;;;2.07;1.50;;;31.10;70.60;;;;;;5070415;28;20225;-84
2022/10/17 12:08:12;;;;;;;2.10;1.50;;;31.60;70.10;;;;;;4993692;28;20201;-85
2022/10/17 12:10:52;;;;;;;2.13;1.73;;;31.60;73.50;;;;;;5060054;28;20169;-84
2022/10/17 12:13:45;;;;;;;2.63;1.50;;;31.60;68.40;;;;;;5060669;28;20517;-85
2022/10/17 12:16:20;;;;;;;2.13;1.40;;;31.20;68.20;;;;;;5061278;28;20170;-87
2022/10/17 12:19:00;;;;;;;1.30;1.20;;;31.30;71.30;;;;;;5063075;28;20294;-86
2022/10/17 12:21:27;;;;;;;2.30;1.60;;;32.20;77.00;;;;;;5061523;28;20158;-85
2022/10/17 12:23:54;;;;;;;2.93;1.60;;;32.70;72.30;;;;;;5060395;28;20176;-86
2022/10/17 12:26:27;;;;;;;1.70;1.60;;;32.80;64.90;;;;;;5060893;28;20172;-87
2022/10/17 12:28:54;;;;;;;2.83;1.50;;;32.70;62.40;;;;;;5059555;28;20197;-86
2022/10/17 12:31:25;;;;;;;2.80;2.30;;;32.40;71.90;;;;;;5060594;28;20686;-85
2022/10/17 12:33:54;;;;;;;3.80;1.80;;;31.80;71.70;;;;;;5059402;28;20199;-87
2022/10/17 12:36:25;;;;;;;3.70;1.87;;;31.50;74.40;;;;;;5060111;28;20174;-85
2022/10/17 12:39:00;;;;;;;4.97;1.90;;;31.10;72.80;;;;;;5059558;28;20298;-84
2022/10/17 12:41:38;;;;;;;1.97;1.77;;;31.00;77.60;;;;;;5059685;28;20223;-87
2022/10/17 12:44:13;;;;;;;8.73;1.60;;;31.30;76.20;;;;;;5059678;28;20183;-86
2022/10/17 12:46:44;;;;;;;3.10;1.60;;;31.60;74.70;;;;;;5059526;28;20627;-86
2022/10/17 12:49:45;;;;;;;2.60;1.50;;;31.50;70.00;;;;;;5060752;28;20196;-84
2022/10/17 12:52:33;;;;;;;2.07;1.43;;;31.60;72.90;;;;;;5059771;28;20184;-84
2022/10/17 12:55:02;;;;;;;3.13;1.50;;;31.80;69.70;;;;;;5059563;28;20202;-85
2022/10/17 12:57:55;;;;;;;3.20;1.57;;;31.60;73.60;;;;;;5059915;28;20218;-87
2022/10/17 13:00:33;;;;;;;4.73;1.70;;;32.00;72.10;;;;;;5060996;28;20547;-85
2022/10/17 13:03:13;;;;;;;2.27;1.67;;;31.90;68.20;;;;;;5059277;28;20176;-87
2022/10/17 13:05:52;;;;;;;2.80;1.70;;;31.70;74.20;;;;;;5060890;28;20194;-86
2022/10/17 13:08:22;;;;;;;4.87;1.80;;;32.00;70.50;;;;;;5058545;28;20211;-86
2022/10/17 13:10:50;;;;;;;5.43;1.37;;;31.90;72.90;;;;;;5060211;28;20171;-88
2022/10/17 13:13:40;;;;;;;1.87;1.77;;;32.00;73.00;;;;;;5060406;28;20179;-86
2022/10/17 13:16:06;;;;;;;3.47;1.60;;;32.00;70.10;;;;;;5052193;28;20188;-86
2022/10/17 13:18:32;;;;;;;2.03;1.70;;;32.00;72.00;;;;;;5059377;28;20621;-87
2022/10/17 13:21:13;;;;;;;4.00;1.60;;;32.00;70.00;;;;;;5061127;28;20176;-87
2022/10/17 13:23:39;;;;;;;1.70;1.60;;;32.10;70.20;;;;;;5062098;28;20205;-86
2022/10/17 13:26:09;;;;;;;5.03;1.70;;;32.20;72.80;;;;;;5061343;28;20175;-86
2022/10/17 13:28:35;;;;;;;3.27;2.47;;;31.40;69.80;;;;;;5061451;28;20204;-84
2022/10/17 13:31:01;;;;;;;3.17;2.57;;;31.40;70.30;;;;;;5059256;28;20239;-88
2022/10/17 13:33:41;;;;;;;6.53;2.90;;;31.40;69.90;;;;;;5059336;28;20185;-87
2022/10/17 13:36:12;;;;;;;2.00;1.90;;;30.80;73.50;;;;;;5056630;28;20185;-85
2022/10/17 13:38:38;;;;;;;2.63;1.83;;;30.30;74.40;;;;;;5058599;28;20227;-85
2022/10/17 13:41:12;;;;;;;4.13;1.90;;;30.40;72.50;;;;;;5057327;28;20659;-84
2022/10/17 13:43:38;;;;;;;2.43;2.00;;;30.80;77.10;;;;;;5056948;28;20657;-85
2022/10/17 13:46:05;;;;;;;4.13;1.50;;;30.70;73.30;;;;;;5058585;28;20664;-86
2022/10/17 13:48:35;;;;;;;4.80;1.40;;;30.40;73.70;;;;;;5056607;28;20673;-85
2022/10/17 13:51:03;;;;;;;2.43;1.70;;;29.20;74.80;;;;;;5059066;28;20257;-86
2022/10/17 13:53:35;;;;;;;2.53;1.73;;;28.30;77.80;;;;;;5056895;28;20174;-85
2022/10/17 13:56:24;;;;;;;3.10;1.67;;;27.40;78.10;;;;;;5059365;28;20189;-86
2022/10/17 13:59:22;;;;;;;6.47;1.70;;;26.60;80.80;;;;;;5060412;28;20202;-86
2022/10/17 14:01:48;;;;;;;5.30;1.43;;;25.80;82.90;;;;;;5055490;28;20182;-85
2022/10/17 14:04:14;;;;;;;7.30;1.43;;;25.20;85.10;;;;;;5060367;28;20182;-84
2022/10/17 14:06:45;;;;;;;2.10;1.63;;;24.70;87.20;;;;;;5061020;28;20338;-86
2022/10/17 14:09:30;;;;;;;4.30;1.50;;;24.30;87.00;;;;;;5067272;28;20224;-85
2022/10/17 14:12:02;;;;;;;3.30;1.80;;;23.90;89.80;;;;;;5069103;28;20230;-86
2022/10/17 14:14:28;;;;;;;4.63;1.73;;;23.60;89.80;;;;;;5064162;28;20170;-87
2022/10/17 14:16:54;;;;;;;5.17;1.50;;;23.30;91.50;;;;;;5057720;28;20197;-86
2022/10/17 14:19:28;;;;;;;2.23;1.73;;;23.10;90.50;;;;;;5058920;28;20186;-85
2022/10/17 14:21:56;;;;;;;2.30;1.80;;;23.00;90.90;;;;;;5060598;28;20174;-84
2022/10/17 14:24:21;;;;;;;3.87;1.67;;;22.90;90.70;;;;;;5059811;28;20517;-83
2022/10/17 14:26:57;;;;;;;3.77;1.50;;;22.80;91.80;;;;;;5058859;28;20237;-85
2022/10/17 14:29:24;;;;;;;3.63;1.80;;;22.70;90.70;;;;;;5057595;28;20198;-86
2022/10/17 14:32:01;;;;;;;2.17;1.80;;;22.70;90.10;;;;;;5057671;28;20183;-84
2022/10/17 14:34:32;;;;;;;2.87;1.30;;;22.70;90.30;;;;;;5058270;28;20175;-85
2022/10/17 14:36:58;;;;;;;4.77;2.10;;;22.60;90.20;;;;;;5057304;28;20609;-86
2022/10/17 14:39:26;;;;;;;2.50;2.00;;;22.50;90.60;;;;;;5057887;28;20685;-86
2022/10/17 14:41:52;;;;;;;4.07;1.77;;;22.40;90.70;;;;;;5057146;28;20268;-86
2022/10/17 14:44:30;;;;;;;4.93;1.67;;;22.30;92.70;;;;;;5057740;28;20200;-84
2022/10/17 14:46:59;;;;;;;7.43;1.80;;;22.20;90.80;;;;;;5059689;28;20670;-86
2022/10/17 14:49:48;;;;;;;3.10;1.87;;;22.20;93.10;;;;;;5058430;28;20730;-85
2022/10/17 14:52:16;;;;;;;5.20;1.90;;;22.00;91.30;;;;;;5059141;28;20535;-86
2022/10/17 14:54:47;;;;;;;7.33;2.03;;;21.90;91.50;;;;;;5057940;28;20203;-86
2022/10/17 14:57:18;;;;;;;2.77;1.90;;;21.90;94.60;;;;;;5059143;28;20182;-86
2022/10/17 14:59:44;;;;;;;17.73;2.93;;;21.80;96.10;;;;;;5059564;28;20627;-86
2022/10/17 15:02:10;;;;;;;10.70;3.10;;;21.80;96.60;;;;;;5059576;28;20660;-86
2022/10/17 15:04:36;;;;;;;19.50;3.47;;;21.60;94.20;;;;;;5057935;28;20678;-85
2022/10/17 15:07:02;;;;;;;5.03;2.00;;;21.50;94.40;;;;;;5059004;28;20190;-85
2022/10/17 15:09:28;;;;;;;6.33;1.77;;;21.30;93.80;;;;;;5063961;28;20189;-84
2022/10/17 15:12:01;;;;;;;3.03;1.73;;;21.20;95.80;;;;;;5068178;28;20170;-86
2022/10/17 15:14:27;;;;;;;6.60;1.87;;;21.10;96.30;;;;;;5057322;28;20169;-85
2022/10/17 15:16:53;;;;;;;3.33;1.80;;;21.10;97.60;;;;;;5058384;28;20170;-85
2022/10/17 15:19:18;;;;;;;4.67;2.00;;;21.00;98.90;;;;;;5058625;28;20200;-84
2022/10/17 15:21:44;;;;;;;3.17;1.90;;;20.90;98.60;;;;;;5056690;28;20182;-86
2022/10/17 15:24:10;;;;;;;11.73;2.30;;;20.80;98.30;;;;;;5059384;28;20185;-85
2022/10/17 15:26:36;;;;;;;5.83;2.00;;;20.70;99.90;;;;;;5059838;28;20172;-86
2022/10/17 15:29:02;;;;;;;4.87;2.17;;;20.60;97.90;;;;;;5058971;28;20209;-83
2022/10/17 15:31:30;;;;;;;8.60;2.77;;;20.50;99.90;;;;;;5060830;28;20245;-85
2022/10/17 15:33:55;;;;;;;12.97;2.23;;;20.40;99.90;;;;;;5061035;28;20218;-85
2022/10/17 15:36:21;;;;;;;6.33;1.70;;;20.30;99.90;;;;;;5060979;28;20186;-85
2022/10/17 15:38:51;;;;;;;8.00;2.30;;;20.20;99.90;;;;;;5060855;28;20216;-85
2022/10/17 15:41:16;;;;;;;8.80;2.53;;;20.10;99.90;;;;;;5062508;28;20563;-83
2022/10/17 15:43:42;;;;;;;4.23;2.27;;;20.00;99.90;;;;;;5061387;28;20173;-85
2022/10/17 15:46:13;;;;;;;10.67;2.13;;;19.90;99.90;;;;;;5061597;28;20181;-83
2022/10/17 15:48:40;;;;;;;3.37;2.00;;;19.70;99.90;;;;;;5063495;28;20560;-83
2022/10/17 15:51:05;;;;;;;7.27;2.60;;;19.60;99.90;;;;;;5064090;28;20174;-87
2022/10/17 15:53:31;;;;;;;10.77;3.13;;;19.50;99.90;;;;;;5063466;28;20214;-85
2022/10/17 15:55:58;;;;;;;7.97;2.43;;;19.40;99.90;;;;;;5062889;28;20184;-85
2022/10/17 15:58:27;;;;;;;18.53;3.00;;;19.30;99.90;;;;;;5064027;28;20298;-83
2022/10/17 16:00:53;;;;;;;16.27;3.27;;;19.20;99.90;;;;;;5066290;28;20233;-84
2022/10/17 16:03:19;;;;;;;11.77;3.73;;;19.10;99.90;;;;;;5065106;28;20202;-82
2022/10/17 16:05:44;;;;;;;12.07;2.90;;;19.00;99.90;;;;;;5047011;28;20176;-85
2022/10/17 16:08:10;;;;;;;10.60;2.30;;;18.90;99.90;;;;;;5064325;28;20223;-84
2022/10/17 16:10:38;;;;;;;9.70;2.40;;;18.80;99.90;;;;;;5061753;28;20175;-83
2022/10/17 16:13:04;;;;;;;14.13;2.90;;;18.70;99.90;;;;;;5060539;28;20179;-83
2022/10/17 16:15:30;;;;;;;6.97;2.83;;;18.60;99.90;;;;;;5061340;28;20590;-83
2022/10/17 16:17:56;;;;;;;9.67;2.40;;;18.50;99.90;;;;;;5061407;28;20676;-85
2022/10/17 16:20:23;;;;;;;6.23;2.63;;;18.40;99.90;;;;;;5061616;28;20175;-85
2022/10/17 16:22:49;;;;;;;7.07;2.67;;;18.30;99.90;;;;;;5063772;28;20171;-84
2022/10/17 16:25:21;;;;;;;7.10;3.13;;;18.20;99.90;;;;;;5063025;28;20171;-86
2022/10/17 16:27:51;;;;;;;6.37;2.60;;;18.00;99.90;;;;;;5062048;28;20196;-85
2022/10/17 16:30:17;;;;;;;18.57;3.67;;;18.00;99.90;;;;;;5062682;28;20172;-85
2022/10/17 16:32:43;;;;;;;15.53;4.27;;;17.90;99.90;;;;;;5063028;28;20181;-85
2022/10/17 16:35:15;;;;;;;13.23;3.40;;;17.80;99.90;;;;;;5063944;28;20189;-84
2022/10/17 16:37:41;;;;;;;12.23;3.07;;;17.70;99.90;;;;;;5066349;28;20210;-84
2022/10/17 16:40:07;;;;;;;9.50;3.47;;;17.60;99.90;;;;;;5067314;28;20190;-84
2022/10/17 16:42:32;;;;;;;8.97;4.53;;;17.60;99.90;;;;;;5077080;28;20209;-85
2022/10/17 16:44:58;;;;;;;10.90;4.53;;;17.50;99.90;;;;;;5073498;28;20181;-82
2022/10/17 16:47:24;;;;;;;9.73;3.93;;;17.40;99.90;;;;;;5064166;28;20170;-82
2022/10/17 16:49:49;;;;;;;6.90;4.07;;;17.30;99.90;;;;;;5061566;28;20304;-82
2022/10/17 16:52:15;;;;;;;5.17;3.10;;;17.30;99.90;;;;;;5061379;28;20179;-82
2022/10/17 16:54:41;;;;;;;6.73;3.10;;;17.20;99.90;;;;;;5064671;28;20173;-82
2022/10/17 16:57:06;;;;;;;10.23;3.60;;;17.10;99.90;;;;;;5066709;28;20191;-83
2022/10/17 16:59:32;;;;;;;11.17;6.90;;;17.00;99.90;;;;;;5065521;28;20191;-83
2022/10/17 17:01:58;;;;;;;8.80;4.53;;;;;;;;;;5062443;28;20531;-82
2022/10/17 17:04:24;;;;;;;6.93;4.00;;;16.80;99.90;;;;;;5061090;28;20627;-81
2022/10/17 17:06:49;;;;;;;9.77;4.30;;;16.80;99.90;;;;;;5061624;28;20213;-82
2022/10/17 17:09:15;;;;;;;7.80;4.43;;;16.70;99.90;;;;;;5061207;28;20561;-83
2022/10/17 17:11:41;;;;;;;8.70;4.50;;;16.70;99.90;;;;;;5061249;28;20254;-81
2022/10/17 17:14:07;;;;;;;7.37;4.57;;;16.60;99.90;;;;;;5061670;28;20176;-82
2022/10/17 17:16:34;;;;;;;7.17;4.43;;;16.50;99.90;;;;;;5060731;28;20229;-82
2022/10/17 17:19:03;;;;;;;9.40;5.27;;;16.40;99.90;;;;;;5061601;28;20209;-81
2022/10/17 17:21:30;;;;;;;6.57;4.80;;;16.40;99.90;;;;;;5060058;28;20627;-81
2022/10/17 17:23:58;;;;;;;8.03;5.30;;;16.30;99.90;;;;;;5060222;28;20179;-82
2022/10/17 17:26:26;;;;;;;7.43;4.80;;;16.30;99.90;;;;;;5060398;28;20186;-83
2022/10/17 17:28:54;;;;;;;6.40;5.40;;;16.20;99.90;;;;;;5059740;28;20672;-82
2022/10/17 17:31:22;;;;;;;14.40;5.20;;;16.10;99.90;;;;;;5062069;28;20179;-83
2022/10/17 17:33:49;;;;;;;9.13;5.07;;;16.10;99.90;;;;;;5061951;28;20188;-83
2022/10/17 17:36:19;;;;;;;8.10;5.30;;;16.10;99.90;;;;;;5062442;28;20200;-82
2022/10/17 17:38:46;;;;;;;9.77;5.33;;;16.10;99.90;;;;;;5061415;28;20278;-81
2022/10/17 17:41:14;;;;;;;9.87;6.10;;;16.10;99.90;;;;;;5060162;28;20177;-83
2022/10/17 17:43:41;;;;;;;10.97;5.37;;;16.00;99.90;;;;;;5060363;28;20181;-83
2022/10/17 17:46:07;;;;;;;7.87;5.13;;;15.90;99.90;;;;;;5061504;28;20170;-83
2022/10/17 17:48:36;;;;;;;10.10;6.10;;;15.90;99.90;;;;;;5062260;28;20193;-82
2022/10/17 17:51:03;;;;;;;13.43;5.93;;;15.80;99.90;;;;;;5060539;28;20264;-82
2022/10/17 17:53:29;;;;;;;10.83;6.67;;;15.70;99.90;;;;;;5060210;28;20184;-82
2022/10/17 17:56:10;;;;;;;9.20;7.13;;;15.70;99.90;;;;;;5061221;28;20175;-83
2022/10/17 17:58:36;;;;;;;10.13;6.47;;;15.60;99.90;;;;;;5064013;28;20202;-87
2022/10/17 18:01:13;;;;;;;10.17;6.90;;;15.60;99.90;;;;;;5063530;28;20628;-84
2022/10/17 18:03:39;;;;;;;11.13;6.77;;;15.50;99.90;;;;;;5063506;28;20538;-82
2022/10/17 18:06:06;;;;;;;10.87;6.83;;;15.40;99.90;;;;;;5063064;28;20636;-82
2022/10/17 18:08:32;;;;;;;20.87;11.93;;;15.40;99.90;;;;;;5063301;28;20223;-83
2022/10/17 18:10:58;;;;;;;21.57;12.83;;;15.30;99.90;;;;;;5063706;28;20200;-84
2022/10/17 18:13:24;;;;;;;27.40;15.23;;;15.20;99.90;;;;;;5064393;28;20178;-84
2022/10/17 18:15:50;;;;;;;25.23;13.83;;;15.20;99.90;;;;;;5065933;28;20174;-84
2022/10/17 18:18:17;;;;;;;18.87;9.10;;;15.00;99.90;;;;;;5061542;28;20201;-82
2022/10/17 18:20:43;;;;;;;16.30;8.60;;;15.00;99.90;;;;;;5060647;28;20183;-82
2022/10/17 18:23:10;;;;;;;15.37;9.17;;;15.00;99.90;;;;;;5060727;28;20632;-82
2022/10/17 18:25:36;;;;;;;16.13;10.27;;;14.90;99.90;;;;;;5061661;28;20235;-82
2022/10/17 18:28:02;;;;;;;20.17;7.87;;;14.80;99.90;;;;;;5061491;28;20177;-82
2022/10/17 18:30:28;;;;;;;14.90;7.10;;;14.80;99.90;;;;;;5060848;28;20185;-82
2022/10/17 18:32:54;;;;;;;6.43;3.60;;;14.80;99.90;;;;;;5061899;28;20177;-82
2022/10/17 18:35:20;;;;;;;8.53;3.70;;;14.70;99.90;;;;;;5060667;28;20592;-83
2022/10/17 18:37:48;;;;;;;5.93;3.10;;;14.70;99.90;;;;;;5059888;28;20193;-83
2022/10/17 18:40:14;;;;;;;4.47;3.60;;;14.60;99.90;;;;;;5061420;28;20196;-81
2022/10/17 18:42:42;;;;;;;6.93;3.90;;;14.70;99.90;;;;;;5061045;28;20169;-81
2022/10/17 18:45:10;;;;;;;5.77;3.23;;;14.60;99.90;;;;;;5060662;28;20169;-81
2022/10/17 18:47:36;;;;;;;12.67;3.80;;;14.60;99.90;;;;;;5060847;28;20514;-82
2022/10/17 18:50:01;;;;;;;5.40;3.33;;;14.60;99.90;;;;;;5061715;28;20729;-82
2022/10/17 18:52:27;;;;;;;6.57;3.67;;;14.60;99.90;;;;;;5063049;28;20181;-82
2022/10/17 18:54:53;;;;;;;8.57;3.60;;;14.60;99.90;;;;;;5064454;28;20507;-83
2022/10/17 18:57:19;;;;;;;6.70;3.63;;;14.50;99.90;;;;;;5069648;28;20176;-83
2022/10/17 18:59:44;;;;;;;7.17;3.70;;;14.50;99.90;;;;;;5073767;28;20205;-83
2022/10/17 19:02:13;;;;;;;7.93;3.40;;;14.50;99.90;;;;;;5063417;28;20189;-82
2022/10/17 19:04:39;;;;;;;6.73;4.00;;;14.40;99.90;;;;;;5061647;28;20174;-83
2022/10/17 19:07:05;;;;;;;6.90;3.40;;;14.40;99.90;;;;;;5060744;28;20189;-83
2022/10/17 19:09:31;;;;;;;4.70;3.50;;;14.40;99.90;;;;;;5060512;28;20201;-81
2022/10/17 19:11:56;;;;;;;5.97;3.43;;;14.30;99.90;;;;;;5057952;28;20639;-82
2022/10/17 19:14:22;;;;;;;6.93;4.20;;;14.30;99.90;;;;;;5058722;28;20174;-82
2022/10/17 19:16:49;;;;;;;6.17;3.77;;;14.30;99.90;;;;;;5059554;28;20579;-82
2022/10/17 19:19:19;;;;;;;7.40;3.97;;;14.30;99.90;;;;;;5057221;28;20205;-84
2022/10/17 19:21:45;;;;;;;5.10;3.80;;;14.30;99.90;;;;;;5059397;28;20233;-83
2022/10/17 19:24:13;;;;;;;7.83;3.67;;;14.30;99.90;;;;;;5057323;28;20177;-82
2022/10/17 19:26:40;;;;;;;10.83;4.23;;;14.30;99.90;;;;;;5059085;28;20177;-83
2022/10/17 19:29:06;;;;;;;9.03;3.93;;;14.40;99.90;;;;;;5057774;28;20226;-82
2022/10/17 19:31:35;;;;;;;6.10;3.70;;;14.40;99.90;;;;;;5060112;28;20208;-83
2022/10/17 19:34:01;;;;;;;7.53;3.90;;;14.40;99.90;;;;;;5059331;28;20193;-83
2022/10/17 19:36:29;;;;;;;4.80;3.80;;;14.40;99.90;;;;;;5056506;28;20223;-80
2022/10/17 19:38:55;;;;;;;7.77;4.47;;;14.40;99.90;;;;;;5058370;28;20255;-82
2022/10/17 19:41:22;;;;;;;5.57;3.90;;;14.30;99.90;;;;;;5057313;28;20181;-81
2022/10/17 19:43:48;;;;;;;7.77;3.90;;;14.30;99.90;;;;;;5059724;28;20181;-82
2022/10/17 19:46:17;;;;;;;7.67;4.20;;;14.30;99.90;;;;;;5059363;28;20181;-83
2022/10/17 19:48:43;;;;;;;7.53;4.53;;;14.30;99.90;;;;;;5059228;28;20197;-82
2022/10/17 19:51:14;;;;;;;8.20;4.43;;;14.30;99.90;;;;;;5059601;28;20184;-83
2022/10/17 19:53:40;;;;;;;4.57;3.80;;;14.20;99.90;;;;;;5057699;28;20523;-82
2022/10/17 19:56:07;;;;;;;6.13;4.10;;;14.20;99.90;;;;;;5060023;28;20170;-82
2022/10/17 19:58:42;;;;;;;7.70;4.80;;;14.20;99.90;;;;;;5058571;28;20224;-81